sensor_id;sensor_type;location;lat;lon;timestamp;temperature;humidity
17954;DHT22;9102;53.548;9.926;2024-02-04T00:01:44;6.60;99.90
17954;DHT22;9102;53.548;9.926;2024-02-04T00:04:10;6.70;99.90
17954;DHT22;9102;53.548;9.926;2024-02-04T00:06:37;6.60;99.90
17954;DHT22;9102;53.548;9.926;2024-02-04T00:09:04;6.60;99.90
17954;DHT22;9102;53.548;9.926;2024-02-04T00:11:32;6.60;99.90
17954;DHT22;9102;53.548;9.926;2024-02-04T00:14:00;6.60;99.90
17954;DHT22;9102;53.548;9.926;2024-02-04T00:16:29;6.60;99.90
17954;DHT22;9102;53.548;9.926;2024-02-04T00:18:56;6.60;99.90
17954;DHT22;9102;53.548;9.926;2024-02-04T00:21:23;6.60;99.90
17954;DHT22;9102;53.548;9.926;2024-02-04T00:23:50;6.60;99.90
17954;DHT22;9102;53.548;9.926;2024-02-04T00:26:16;6.70;99.90
17954;DHT22;9102;53.548;9.926;2024-02-04T00:28:43;6.50;99.90
17954;DHT22;9102;53.548;9.926;2024-02-04T00:31:10;6.50;99.90
17954;DHT22;9102;53.548;9.926;2024-02-04T00:33:38;6.50;99.90
17954;DHT22;9102;53.548;9.926;2024-02-04T00:36:06;6.70;99.90
17954;DHT22;9102;53.548;9.926;2024-02-04T00:38:32;6.50;99.90
17954;DHT22;9102;53.548;9.926;2024-02-04T00:40:59;6.50;99.90
17954;DHT22;9102;53.548;9.926;2024-02-04T00:43:26;6.50;99.90
17954;DHT22;9102;53.548;9.926;2024-02-04T00:45:53;6.40;99.90
17954;DHT22;9102;53.548;9.926;2024-02-04T00:48:22;6.50;99.90
17954;DHT22;9102;53.548;9.926;2024-02-04T00:50:50;6.30;99.90
17954;DHT22;9102;53.548;9.926;2024-02-04T00:53:17;6.30;99.90
17954;DHT22;9102;53.548;9.926;2024-02-04T00:55:43;6.30;99.90
17954;DHT22;9102;53.548;9.926;2024-02-04T00:58:10;6.30;99.90
17954;DHT22;9102;53.548;9.926;2024-02-04T01:00:37;6.30;99.90
17954;DHT22;9102;53.548;9.926;2024-02-04T01:03:04;6.30;99.90
17954;DHT22;9102;53.548;9.926;2024-02-04T01:05:34;6.40;99.90
17954;DHT22;9102;53.548;9.926;2024-02-04T01:08:02;6.40;99.90
17954;DHT22;9102;53.548;9.926;2024-02-04T01:10:29;6.40;99.90
17954;DHT22;9102;53.548;9.926;2024-02-04T01:12:56;6.40;99.90
17954;DHT22;9102;53.548;9.926;2024-02-04T01:15:23;6.40;99.90
17954;DHT22;9102;53.548;9.926;2024-02-04T01:17:51;6.40;99.90
17954;DHT22;9102;53.548;9.926;2024-02-04T01:20:18;6.50;99.90
17954;DHT22;9102;53.548;9.926;2024-02-04T01:22:45;6.50;99.90
17954;DHT22;9102;53.548;9.926;2024-02-04T01:25:12;6.50;99.90
17954;DHT22;9102;53.548;9.926;2024-02-04T01:27:39;6.50;99.90
17954;DHT22;9102;53.548;9.926;2024-02-04T01:30:06;6.60;99.90
17954;DHT22;9102;53.548;9.926;2024-02-04T01:32:33;6.60;99.90
17954;DHT22;9102;53.548;9.926;2024-02-04T01:35:00;6.70;99.90
17954;DHT22;9102;53.548;9.926;2024-02-04T01:37:27;6.70;99.90
17954;DHT22;9102;53.548;9.926;2024-02-04T01:39:54;6.70;99.90
17954;DHT22;9102;53.548;9.926;2024-02-04T01:42:22;6.80;99.90
17954;DHT22;9102;53.548;9.926;2024-02-04T01:44:49;6.80;99.90
17954;DHT22;9102;53.548;9.926;2024-02-04T01:47:16;6.80;99.90
17954;DHT22;9102;53.548;9.926;2024-02-04T01:49:43;6.90;99.90
17954;DHT22;9102;53.548;9.926;2024-02-04T01:52:11;6.90;99.90
17954;DHT22;9102;53.548;9.926;2024-02-04T01:54:40;6.80;99.90
17954;DHT22;9102;53.548;9.926;2024-02-04T01:57:10;6.90;99.90
17954;DHT22;9102;53.548;9.926;2024-02-04T01:59:39;7.00;99.90
17954;DHT22;9102;53.548;9.926;2024-02-04T02:02:06;7.10;99.90
17954;DHT22;9102;53.548;9.926;2024-02-04T02:04:34;7.00;99.90
17954;DHT22;9102;53.548;9.926;2024-02-04T02:07:01;7.00;99.90
17954;DHT22;9102;53.548;9.926;2024-02-04T02:09:28;7.10;99.90
17954;DHT22;9102;53.548;9.926;2024-02-04T02:12:01;7.10;99.90
17954;DHT22;9102;53.548;9.926;2024-02-04T02:14:33;7.00;99.90
17954;DHT22;9102;53.548;9.926;2024-02-04T02:17:06;7.10;99.90
17954;DHT22;9102;53.548;9.926;2024-02-04T02:19:40;7.10;99.90
17954;DHT22;9102;53.548;9.926;2024-02-04T02:22:29;7.10;99.90
17954;DHT22;9102;53.548;9.926;2024-02-04T02:24:58;7.10;99.90
17954;DHT22;9102;53.548;9.926;2024-02-04T02:27:26;7.10;99.90
17954;DHT22;9102;53.548;9.926;2024-02-04T02:29:53;7.20;99.90
17954;DHT22;9102;53.548;9.926;2024-02-04T02:32:19;7.10;99.90
17954;DHT22;9102;53.548;9.926;2024-02-04T02:34:46;7.00;99.90
17954;DHT22;9102;53.548;9.926;2024-02-04T02:37:21;6.90;99.90
17954;DHT22;9102;53.548;9.926;2024-02-04T02:39:53;6.90;99.90
17954;DHT22;9102;53.548;9.926;2024-02-04T02:42:24;6.90;99.90
17954;DHT22;9102;53.548;9.926;2024-02-04T02:44:53;6.80;99.90
17954;DHT22;9102;53.548;9.926;2024-02-04T02:47:21;6.70;99.90
17954;DHT22;9102;53.548;9.926;2024-02-04T02:49:51;6.80;99.90
17954;DHT22;9102;53.548;9.926;2024-02-04T02:52:18;6.60;99.90
17954;DHT22;9102;53.548;9.926;2024-02-04T02:54:44;6.60;99.90
17954;DHT22;9102;53.548;9.926;2024-02-04T02:57:11;6.60;99.90
17954;DHT22;9102;53.548;9.926;2024-02-04T02:59:39;6.50;99.90
17954;DHT22;9102;53.548;9.926;2024-02-04T03:02:06;6.60;99.90
17954;DHT22;9102;53.548;9.926;2024-02-04T03:04:33;6.60;99.90
17954;DHT22;9102;53.548;9.926;2024-02-04T03:07:00;6.80;99.90
17954;DHT22;9102;53.548;9.926;2024-02-04T03:09:28;6.80;99.90
17954;DHT22;9102;53.548;9.926;2024-02-04T03:11:54;7.00;99.90
17954;DHT22;9102;53.548;9.926;2024-02-04T03:14:21;6.90;99.90
17954;DHT22;9102;53.548;9.926;2024-02-04T03:16:49;7.00;99.90
17954;DHT22;9102;53.548;9.926;2024-02-04T03:19:16;6.90;99.90
17954;DHT22;9102;53.548;9.926;2024-02-04T03:21:43;6.90;99.90
17954;DHT22;9102;53.548;9.926;2024-02-04T03:24:10;6.80;99.90
17954;DHT22;9102;53.548;9.926;2024-02-04T03:26:36;6.80;99.90
17954;DHT22;9102;53.548;9.926;2024-02-04T03:29:03;6.90;99.90
17954;DHT22;9102;53.548;9.926;2024-02-04T03:31:31;6.70;99.90
17954;DHT22;9102;53.548;9.926;2024-02-04T03:33:59;6.80;99.90
17954;DHT22;9102;53.548;9.926;2024-02-04T03:36:27;6.70;99.90
17954;DHT22;9102;53.548;9.926;2024-02-04T03:38:54;6.90;99.90
17954;DHT22;9102;53.548;9.926;2024-02-04T03:41:21;6.80;99.90
17954;DHT22;9102;53.548;9.926;2024-02-04T03:43:48;6.70;99.90
17954;DHT22;9102;53.548;9.926;2024-02-04T03:46:14;6.70;99.90
17954;DHT22;9102;53.548;9.926;2024-02-04T03:48:42;6.70;99.90
17954;DHT22;9102;53.548;9.926;2024-02-04T03:51:15;6.80;99.90
17954;DHT22;9102;53.548;9.926;2024-02-04T03:53:42;6.70;99.90
17954;DHT22;9102;53.548;9.926;2024-02-04T03:56:09;6.80;99.90
17954;DHT22;9102;53.548;9.926;2024-02-04T03:58:36;6.70;99.90
17954;DHT22;9102;53.548;9.926;2024-02-04T04:01:02;6.70;99.90
17954;DHT22;9102;53.548;9.926;2024-02-04T04:03:29;6.70;99.90
17954;DHT22;9102;53.548;9.926;2024-02-04T04:05:56;6.80;99.90
17954;DHT22;9102;53.548;9.926;2024-02-04T04:08:24;6.70;99.90
17954;DHT22;9102;53.548;9.926;2024-02-04T04:10:51;6.70;99.90
17954;DHT22;9102;53.548;9.926;2024-02-04T04:13:18;6.70;99.90
17954;DHT22;9102;53.548;9.926;2024-02-04T04:15:45;6.70;99.90
17954;DHT22;9102;53.548;9.926;2024-02-04T04:18:11;6.70;99.90
17954;DHT22;9102;53.548;9.926;2024-02-04T04:20:38;6.70;99.90
17954;DHT22;9102;53.548;9.926;2024-02-04T04:23:05;6.80;99.90
17954;DHT22;9102;53.548;9.926;2024-02-04T04:25:33;6.70;99.90
17954;DHT22;9102;53.548;9.926;2024-02-04T04:28:00;6.70;99.90
17954;DHT22;9102;53.548;9.926;2024-02-04T04:30:27;6.70;99.90
17954;DHT22;9102;53.548;9.926;2024-02-04T04:32:54;6.60;99.90
17954;DHT22;9102;53.548;9.926;2024-02-04T04:35:21;6.60;99.90
17954;DHT22;9102;53.548;9.926;2024-02-04T04:37:47;6.60;99.90
17954;DHT22;9102;53.548;9.926;2024-02-04T04:40:14;6.60;99.90
17954;DHT22;9102;53.548;9.926;2024-02-04T04:42:42;6.60;99.90
17954;DHT22;9102;53.548;9.926;2024-02-04T04:45:10;6.50;99.90
17954;DHT22;9102;53.548;9.926;2024-02-04T04:47:37;6.40;99.90
17954;DHT22;9102;53.548;9.926;2024-02-04T04:50:04;6.50;99.90
17954;DHT22;9102;53.548;9.926;2024-02-04T04:52:31;6.50;99.90
17954;DHT22;9102;53.548;9.926;2024-02-04T04:54:58;6.40;99.90
17954;DHT22;9102;53.548;9.926;2024-02-04T04:57:24;6.40;99.90
17954;DHT22;9102;53.548;9.926;2024-02-04T04:59:53;6.40;99.90
17954;DHT22;9102;53.548;9.926;2024-02-04T05:02:19;6.40;99.90
17954;DHT22;9102;53.548;9.926;2024-02-04T05:04:46;6.40;99.90
17954;DHT22;9102;53.548;9.926;2024-02-04T05:07:14;6.50;99.90
17954;DHT22;9102;53.548;9.926;2024-02-04T05:09:40;6.40;99.90
17954;DHT22;9102;53.548;9.926;2024-02-04T05:12:08;6.40;99.90
17954;DHT22;9102;53.548;9.926;2024-02-04T05:14:35;6.40;99.90
17954;DHT22;9102;53.548;9.926;2024-02-04T05:17:04;6.20;99.90
17954;DHT22;9102;53.548;9.926;2024-02-04T05:19:31;6.40;99.90
17954;DHT22;9102;53.548;9.926;2024-02-04T05:21:57;6.30;99.90
17954;DHT22;9102;53.548;9.926;2024-02-04T05:24:24;6.30;99.90
17954;DHT22;9102;53.548;9.926;2024-02-04T05:26:51;6.30;99.90
17954;DHT22;9102;53.548;9.926;2024-02-04T05:29:18;6.40;99.90
17954;DHT22;9102;53.548;9.926;2024-02-04T05:31:44;6.30;99.90
17954;DHT22;9102;53.548;9.926;2024-02-04T05:34:13;6.30;99.90
17954;DHT22;9102;53.548;9.926;2024-02-04T05:36:40;6.30;99.90
17954;DHT22;9102;53.548;9.926;2024-02-04T05:39:11;6.30;99.90
17954;DHT22;9102;53.548;9.926;2024-02-04T05:41:38;6.30;99.90
17954;DHT22;9102;53.548;9.926;2024-02-04T05:44:05;6.30;99.90
17954;DHT22;9102;53.548;9.926;2024-02-04T05:46:34;6.30;99.90
17954;DHT22;9102;53.548;9.926;2024-02-04T05:49:01;6.20;99.90
17954;DHT22;9102;53.548;9.926;2024-02-04T05:51:30;6.30;99.90
17954;DHT22;9102;53.548;9.926;2024-02-04T05:53:57;6.20;99.90
17954;DHT22;9102;53.548;9.926;2024-02-04T05:56:24;6.20;99.90
17954;DHT22;9102;53.548;9.926;2024-02-04T05:58:51;6.40;99.90
17954;DHT22;9102;53.548;9.926;2024-02-04T06:01:17;6.30;99.90
17954;DHT22;9102;53.548;9.926;2024-02-04T06:03:44;6.30;99.90
17954;DHT22;9102;53.548;9.926;2024-02-04T06:06:14;6.40;99.90
17954;DHT22;9102;53.548;9.926;2024-02-04T06:08:43;6.40;99.90
17954;DHT22;9102;53.548;9.926;2024-02-04T06:11:10;6.40;99.90
17954;DHT22;9102;53.548;9.926;2024-02-04T06:13:38;6.40;99.90
17954;DHT22;9102;53.548;9.926;2024-02-04T06:16:06;6.40;99.90
17954;DHT22;9102;53.548;9.926;2024-02-04T06:18:32;6.40;99.90
17954;DHT22;9102;53.548;9.926;2024-02-04T06:21:00;6.40;99.90
17954;DHT22;9102;53.548;9.926;2024-02-04T06:23:26;6.40;99.90
17954;DHT22;9102;53.548;9.926;2024-02-04T06:25:54;6.40;99.90
17954;DHT22;9102;53.548;9.926;2024-02-04T06:28:21;6.40;99.90
17954;DHT22;9102;53.548;9.926;2024-02-04T06:30:48;6.40;99.90
17954;DHT22;9102;53.548;9.926;2024-02-04T06:33:15;6.40;99.90
17954;DHT22;9102;53.548;9.926;2024-02-04T06:35:43;6.40;99.90
17954;DHT22;9102;53.548;9.926;2024-02-04T06:38:09;6.40;99.90
17954;DHT22;9102;53.548;9.926;2024-02-04T06:40:36;6.40;99.90
17954;DHT22;9102;53.548;9.926;2024-02-04T06:43:04;6.40;99.90
17954;DHT22;9102;53.548;9.926;2024-02-04T06:45:31;6.40;99.90
17954;DHT22;9102;53.548;9.926;2024-02-04T06:47:58;6.40;99.90
17954;DHT22;9102;53.548;9.926;2024-02-04T06:50:25;6.40;99.90
17954;DHT22;9102;53.548;9.926;2024-02-04T06:52:52;6.50;99.90
17954;DHT22;9102;53.548;9.926;2024-02-04T06:55:19;6.40;99.90
17954;DHT22;9102;53.548;9.926;2024-02-04T06:57:45;6.50;99.90
17954;DHT22;9102;53.548;9.926;2024-02-04T07:00:15;6.50;99.90
17954;DHT22;9102;53.548;9.926;2024-02-04T07:02:42;6.50;99.90
17954;DHT22;9102;53.548;9.926;2024-02-04T07:05:09;6.60;99.90
17954;DHT22;9102;53.548;9.926;2024-02-04T07:07:36;6.40;99.90
17954;DHT22;9102;53.548;9.926;2024-02-04T07:10:04;6.40;99.90
17954;DHT22;9102;53.548;9.926;2024-02-04T07:12:31;6.30;99.90
17954;DHT22;9102;53.548;9.926;2024-02-04T07:14:58;6.30;99.90
17954;DHT22;9102;53.548;9.926;2024-02-04T07:17:26;6.30;99.90
17954;DHT22;9102;53.548;9.926;2024-02-04T07:19:53;6.40;99.90
17954;DHT22;9102;53.548;9.926;2024-02-04T07:22:20;6.50;99.90
17954;DHT22;9102;53.548;9.926;2024-02-04T07:24:46;6.50;99.90
17954;DHT22;9102;53.548;9.926;2024-02-04T07:27:13;6.60;99.90
17954;DHT22;9102;53.548;9.926;2024-02-04T07:29:40;6.60;99.90
17954;DHT22;9102;53.548;9.926;2024-02-04T07:32:07;6.50;99.90
17954;DHT22;9102;53.548;9.926;2024-02-04T07:34:35;6.50;99.90
17954;DHT22;9102;53.548;9.926;2024-02-04T07:37:02;6.60;99.90
17954;DHT22;9102;53.548;9.926;2024-02-04T07:39:29;6.60;99.90
17954;DHT22;9102;53.548;9.926;2024-02-04T07:41:57;6.60;99.90
17954;DHT22;9102;53.548;9.926;2024-02-04T07:44:25;6.60;99.90
17954;DHT22;9102;53.548;9.926;2024-02-04T07:46:52;6.70;99.90
17954;DHT22;9102;53.548;9.926;2024-02-04T07:49:19;6.80;99.90
17954;DHT22;9102;53.548;9.926;2024-02-04T07:51:47;6.80;99.90
17954;DHT22;9102;53.548;9.926;2024-02-04T07:54:14;6.80;99.90
17954;DHT22;9102;53.548;9.926;2024-02-04T07:56:41;6.90;99.90
17954;DHT22;9102;53.548;9.926;2024-02-04T07:59:07;6.80;99.90
17954;DHT22;9102;53.548;9.926;2024-02-04T08:01:34;6.80;99.90
17954;DHT22;9102;53.548;9.926;2024-02-04T08:04:01;6.90;99.90
17954;DHT22;9102;53.548;9.926;2024-02-04T08:06:29;6.90;99.90
17954;DHT22;9102;53.548;9.926;2024-02-04T08:08:57;6.90;99.90
17954;DHT22;9102;53.548;9.926;2024-02-04T08:11:24;7.00;99.90
17954;DHT22;9102;53.548;9.926;2024-02-04T08:13:50;7.00;99.90
17954;DHT22;9102;53.548;9.926;2024-02-04T08:16:17;6.90;99.90
17954;DHT22;9102;53.548;9.926;2024-02-04T08:18:44;7.00;99.90
17954;DHT22;9102;53.548;9.926;2024-02-04T08:21:11;7.10;99.90
17954;DHT22;9102;53.548;9.926;2024-02-04T08:23:38;7.00;99.90
17954;DHT22;9102;53.548;9.926;2024-02-04T08:26:07;7.10;99.90
17954;DHT22;9102;53.548;9.926;2024-02-04T08:28:34;7.10;99.90
17954;DHT22;9102;53.548;9.926;2024-02-04T08:31:01;7.10;99.90
17954;DHT22;9102;53.548;9.926;2024-02-04T08:33:28;7.10;99.90
17954;DHT22;9102;53.548;9.926;2024-02-04T08:35:54;7.20;99.90
17954;DHT22;9102;53.548;9.926;2024-02-04T08:38:21;7.20;99.90
17954;DHT22;9102;53.548;9.926;2024-02-04T08:40:48;7.20;99.90
17954;DHT22;9102;53.548;9.926;2024-02-04T08:43:16;7.20;99.90
17954;DHT22;9102;53.548;9.926;2024-02-04T08:45:43;7.30;99.90
17954;DHT22;9102;53.548;9.926;2024-02-04T08:48:10;7.30;99.90
17954;DHT22;9102;53.548;9.926;2024-02-04T08:50:37;7.40;99.90
17954;DHT22;9102;53.548;9.926;2024-02-04T08:53:03;7.20;99.90
17954;DHT22;9102;53.548;9.926;2024-02-04T08:55:30;7.40;99.90
17954;DHT22;9102;53.548;9.926;2024-02-04T08:57:57;7.40;99.90
17954;DHT22;9102;53.548;9.926;2024-02-04T09:00:25;7.30;99.90
17954;DHT22;9102;53.548;9.926;2024-02-04T09:02:52;7.40;99.90
17954;DHT22;9102;53.548;9.926;2024-02-04T09:05:19;7.40;99.90
17954;DHT22;9102;53.548;9.926;2024-02-04T09:07:46;7.50;99.90
17954;DHT22;9102;53.548;9.926;2024-02-04T09:10:13;7.50;99.90
17954;DHT22;9102;53.548;9.926;2024-02-04T09:12:40;7.50;99.90
17954;DHT22;9102;53.548;9.926;2024-02-04T09:15:07;7.50;99.90
17954;DHT22;9102;53.548;9.926;2024-02-04T09:17:35;7.50;99.90
17954;DHT22;9102;53.548;9.926;2024-02-04T09:20:03;7.50;99.90
17954;DHT22;9102;53.548;9.926;2024-02-04T09:22:30;7.50;99.90
17954;DHT22;9102;53.548;9.926;2024-02-04T09:24:56;7.50;99.90
17954;DHT22;9102;53.548;9.926;2024-02-04T09:27:23;7.50;99.90
17954;DHT22;9102;53.548;9.926;2024-02-04T09:29:51;7.50;99.90
17954;DHT22;9102;53.548;9.926;2024-02-04T09:32:20;7.50;99.90
17954;DHT22;9102;53.548;9.926;2024-02-04T09:34:48;7.60;99.90
17954;DHT22;9102;53.548;9.926;2024-02-04T09:37:15;7.60;99.90
17954;DHT22;9102;53.548;9.926;2024-02-04T09:39:42;7.60;99.90
17954;DHT22;9102;53.548;9.926;2024-02-04T09:42:09;7.60;99.90
17954;DHT22;9102;53.548;9.926;2024-02-04T09:44:36;7.70;99.90
17954;DHT22;9102;53.548;9.926;2024-02-04T09:47:05;7.80;99.90
17954;DHT22;9102;53.548;9.926;2024-02-04T09:49:34;7.80;99.90
17954;DHT22;9102;53.548;9.926;2024-02-04T09:52:07;7.80;99.90
17954;DHT22;9102;53.548;9.926;2024-02-04T09:54:34;7.80;99.90
17954;DHT22;9102;53.548;9.926;2024-02-04T09:57:05;7.70;99.90
17954;DHT22;9102;53.548;9.926;2024-02-04T09:59:32;7.80;99.90
17954;DHT22;9102;53.548;9.926;2024-02-04T10:02:00;7.80;99.90
17954;DHT22;9102;53.548;9.926;2024-02-04T10:04:28;7.80;99.90
17954;DHT22;9102;53.548;9.926;2024-02-04T10:06:54;7.80;99.90
17954;DHT22;9102;53.548;9.926;2024-02-04T10:09:23;7.80;99.90
17954;DHT22;9102;53.548;9.926;2024-02-04T10:11:50;7.80;99.90
17954;DHT22;9102;53.548;9.926;2024-02-04T10:14:16;7.90;99.90
17954;DHT22;9102;53.548;9.926;2024-02-04T10:16:45;7.90;99.90
17954;DHT22;9102;53.548;9.926;2024-02-04T10:19:12;7.90;99.90
17954;DHT22;9102;53.548;9.926;2024-02-04T10:21:38;7.90;99.90
17954;DHT22;9102;53.548;9.926;2024-02-04T10:24:06;8.00;99.90
17954;DHT22;9102;53.548;9.926;2024-02-04T10:26:35;8.00;99.90
17954;DHT22;9102;53.548;9.926;2024-02-04T10:29:03;7.90;99.90
17954;DHT22;9102;53.548;9.926;2024-02-04T10:31:30;7.90;99.90
17954;DHT22;9102;53.548;9.926;2024-02-04T10:33:57;7.90;99.90
17954;DHT22;9102;53.548;9.926;2024-02-04T10:36:24;7.90;99.90
17954;DHT22;9102;53.548;9.926;2024-02-04T10:38:50;7.90;99.90
17954;DHT22;9102;53.548;9.926;2024-02-04T10:41:18;7.90;99.90
17954;DHT22;9102;53.548;9.926;2024-02-04T10:43:46;8.00;99.90
17954;DHT22;9102;53.548;9.926;2024-02-04T10:46:17;8.00;99.90
17954;DHT22;9102;53.548;9.926;2024-02-04T10:48:49;8.00;99.90
17954;DHT22;9102;53.548;9.926;2024-02-04T10:51:18;8.00;99.90
17954;DHT22;9102;53.548;9.926;2024-02-04T10:53:51;8.10;99.90
17954;DHT22;9102;53.548;9.926;2024-02-04T10:56:24;8.10;99.90
17954;DHT22;9102;53.548;9.926;2024-02-04T10:58:53;8.20;99.90
17954;DHT22;9102;53.548;9.926;2024-02-04T11:01:21;8.20;99.90
17954;DHT22;9102;53.548;9.926;2024-02-04T11:03:50;8.20;99.90
17954;DHT22;9102;53.548;9.926;2024-02-04T11:06:19;8.10;99.90
17954;DHT22;9102;53.548;9.926;2024-02-04T11:08:47;8.10;99.90
17954;DHT22;9102;53.548;9.926;2024-02-04T11:11:14;8.20;99.90
17954;DHT22;9102;53.548;9.926;2024-02-04T11:13:43;8.20;99.90
17954;DHT22;9102;53.548;9.926;2024-02-04T11:16:21;8.10;99.90
17954;DHT22;9102;53.548;9.926;2024-02-04T11:19:08;8.10;99.90
17954;DHT22;9102;53.548;9.926;2024-02-04T11:22:01;8.10;99.90
17954;DHT22;9102;53.548;9.926;2024-02-04T11:24:48;8.20;99.90
17954;DHT22;9102;53.548;9.926;2024-02-04T11:27:19;8.30;99.90
17954;DHT22;9102;53.548;9.926;2024-02-04T11:29:46;8.30;99.90
17954;DHT22;9102;53.548;9.926;2024-02-04T11:32:14;8.30;99.90
17954;DHT22;9102;53.548;9.926;2024-02-04T11:34:41;8.30;99.90
17954;DHT22;9102;53.548;9.926;2024-02-04T11:37:15;8.40;99.90
17954;DHT22;9102;53.548;9.926;2024-02-04T11:39:48;8.50;99.90
17954;DHT22;9102;53.548;9.926;2024-02-04T11:42:16;8.50;99.90
17954;DHT22;9102;53.548;9.926;2024-02-04T11:44:43;8.50;99.90
17954;DHT22;9102;53.548;9.926;2024-02-04T11:47:11;8.50;99.90
17954;DHT22;9102;53.548;9.926;2024-02-04T11:49:39;8.60;99.90
17954;DHT22;9102;53.548;9.926;2024-02-04T11:52:06;8.60;99.90
17954;DHT22;9102;53.548;9.926;2024-02-04T11:54:33;8.60;99.90
17954;DHT22;9102;53.548;9.926;2024-02-04T11:57:00;8.60;99.90
17954;DHT22;9102;53.548;9.926;2024-02-04T11:59:27;8.50;99.90
17954;DHT22;9102;53.548;9.926;2024-02-04T12:01:54;8.60;99.90
17954;DHT22;9102;53.548;9.926;2024-02-04T12:04:22;8.60;99.90
17954;DHT22;9102;53.548;9.926;2024-02-04T12:06:50;8.60;99.90
17954;DHT22;9102;53.548;9.926;2024-02-04T12:09:17;8.60;99.90
17954;DHT22;9102;53.548;9.926;2024-02-04T12:11:45;8.60;99.90
17954;DHT22;9102;53.548;9.926;2024-02-04T12:14:14;8.70;99.90
17954;DHT22;9102;53.548;9.926;2024-02-04T12:16:41;8.70;99.90
17954;DHT22;9102;53.548;9.926;2024-02-04T12:19:07;8.80;99.90
17954;DHT22;9102;53.548;9.926;2024-02-04T12:21:34;8.80;99.90
17954;DHT22;9102;53.548;9.926;2024-02-04T12:24:04;8.90;99.90
17954;DHT22;9102;53.548;9.926;2024-02-04T12:26:31;9.00;99.90
17954;DHT22;9102;53.548;9.926;2024-02-04T12:28:58;9.00;99.90
17954;DHT22;9102;53.548;9.926;2024-02-04T12:31:26;9.00;99.90
17954;DHT22;9102;53.548;9.926;2024-02-04T12:33:55;9.00;99.90
17954;DHT22;9102;53.548;9.926;2024-02-04T12:36:24;8.90;99.90
17954;DHT22;9102;53.548;9.926;2024-02-04T12:38:53;8.80;99.90
17954;DHT22;9102;53.548;9.926;2024-02-04T12:41:22;8.80;99.90
17954;DHT22;9102;53.548;9.926;2024-02-04T12:43:53;8.80;99.90
17954;DHT22;9102;53.548;9.926;2024-02-04T12:46:21;8.70;99.90
17954;DHT22;9102;53.548;9.926;2024-02-04T12:48:51;8.70;99.90
17954;DHT22;9102;53.548;9.926;2024-02-04T12:51:24;8.80;99.90
17954;DHT22;9102;53.548;9.926;2024-02-04T12:54:02;8.80;99.90
17954;DHT22;9102;53.548;9.926;2024-02-04T12:56:40;8.80;99.90
17954;DHT22;9102;53.548;9.926;2024-02-04T12:59:07;8.80;99.90
17954;DHT22;9102;53.548;9.926;2024-02-04T13:01:34;8.90;99.90
17954;DHT22;9102;53.548;9.926;2024-02-04T13:04:01;8.80;99.90
17954;DHT22;9102;53.548;9.926;2024-02-04T13:06:27;8.80;99.90
17954;DHT22;9102;53.548;9.926;2024-02-04T13:08:54;8.80;99.90
17954;DHT22;9102;53.548;9.926;2024-02-04T13:11:23;8.80;99.90
17954;DHT22;9102;53.548;9.926;2024-02-04T13:13:51;8.70;99.90
17954;DHT22;9102;53.548;9.926;2024-02-04T13:16:18;8.70;99.90
17954;DHT22;9102;53.548;9.926;2024-02-04T13:18:52;8.80;99.90
17954;DHT22;9102;53.548;9.926;2024-02-04T13:21:18;8.70;99.90
17954;DHT22;9102;53.548;9.926;2024-02-04T13:23:47;8.80;99.90
17954;DHT22;9102;53.548;9.926;2024-02-04T13:26:14;8.70;99.90
17954;DHT22;9102;53.548;9.926;2024-02-04T13:28:41;8.80;99.90
17954;DHT22;9102;53.548;9.926;2024-02-04T13:31:10;8.80;99.90
17954;DHT22;9102;53.548;9.926;2024-02-04T13:33:38;8.70;99.90
17954;DHT22;9102;53.548;9.926;2024-02-04T13:36:06;8.80;99.90
17954;DHT22;9102;53.548;9.926;2024-02-04T13:38:33;8.80;99.90
17954;DHT22;9102;53.548;9.926;2024-02-04T13:41:00;8.80;99.90
17954;DHT22;9102;53.548;9.926;2024-02-04T13:43:27;8.80;99.90
17954;DHT22;9102;53.548;9.926;2024-02-04T13:45:54;8.80;99.90
17954;DHT22;9102;53.548;9.926;2024-02-04T13:48:22;8.80;99.90
17954;DHT22;9102;53.548;9.926;2024-02-04T13:50:51;8.80;99.90
17954;DHT22;9102;53.548;9.926;2024-02-04T13:53:19;8.80;99.90
17954;DHT22;9102;53.548;9.926;2024-02-04T13:55:46;8.80;99.90
17954;DHT22;9102;53.548;9.926;2024-02-04T13:58:13;8.80;99.90
17954;DHT22;9102;53.548;9.926;2024-02-04T14:00:40;8.80;99.90
17954;DHT22;9102;53.548;9.926;2024-02-04T14:03:08;8.80;99.90
17954;DHT22;9102;53.548;9.926;2024-02-04T14:05:36;8.70;99.90
17954;DHT22;9102;53.548;9.926;2024-02-04T14:08:06;8.70;99.90
17954;DHT22;9102;53.548;9.926;2024-02-04T14:10:33;8.70;99.90
17954;DHT22;9102;53.548;9.926;2024-02-04T14:12:59;8.70;99.90
17954;DHT22;9102;53.548;9.926;2024-02-04T14:15:26;8.80;99.90
17954;DHT22;9102;53.548;9.926;2024-02-04T14:17:53;8.70;99.90
17954;DHT22;9102;53.548;9.926;2024-02-04T14:20:20;8.70;99.90
17954;DHT22;9102;53.548;9.926;2024-02-04T14:22:49;8.70;99.90
17954;DHT22;9102;53.548;9.926;2024-02-04T14:25:16;8.70;99.90
17954;DHT22;9102;53.548;9.926;2024-02-04T14:27:42;8.70;99.90
17954;DHT22;9102;53.548;9.926;2024-02-04T14:30:10;8.70;99.90
17954;DHT22;9102;53.548;9.926;2024-02-04T14:32:37;8.70;99.90
17954;DHT22;9102;53.548;9.926;2024-02-04T14:35:04;8.80;99.90
17954;DHT22;9102;53.548;9.926;2024-02-04T14:37:31;8.70;99.90
17954;DHT22;9102;53.548;9.926;2024-02-04T14:40:00;8.70;99.90
17954;DHT22;9102;53.548;9.926;2024-02-04T14:42:28;8.60;99.90
17954;DHT22;9102;53.548;9.926;2024-02-04T14:44:55;8.60;99.90
17954;DHT22;9102;53.548;9.926;2024-02-04T14:47:22;8.70;99.90
17954;DHT22;9102;53.548;9.926;2024-02-04T14:49:49;8.60;99.90
17954;DHT22;9102;53.548;9.926;2024-02-04T14:52:15;8.60;99.90
17954;DHT22;9102;53.548;9.926;2024-02-04T14:54:43;8.60;99.90
17954;DHT22;9102;53.548;9.926;2024-02-04T14:57:12;8.60;99.90
17954;DHT22;9102;53.548;9.926;2024-02-04T14:59:38;8.60;99.90
17954;DHT22;9102;53.548;9.926;2024-02-04T15:02:06;8.60;99.90
17954;DHT22;9102;53.548;9.926;2024-02-04T15:04:34;8.50;99.90
17954;DHT22;9102;53.548;9.926;2024-02-04T15:07:01;8.50;99.90
17954;DHT22;9102;53.548;9.926;2024-02-04T15:09:30;8.40;99.90
17954;DHT22;9102;53.548;9.926;2024-02-04T15:11:57;8.30;99.90
17954;DHT22;9102;53.548;9.926;2024-02-04T15:14:27;8.20;99.90
17954;DHT22;9102;53.548;9.926;2024-02-04T15:16:54;8.10;99.90
17954;DHT22;9102;53.548;9.926;2024-02-04T15:19:23;8.00;99.90
17954;DHT22;9102;53.548;9.926;2024-02-04T15:21:51;7.90;99.90
17954;DHT22;9102;53.548;9.926;2024-02-04T15:24:18;7.90;99.90
17954;DHT22;9102;53.548;9.926;2024-02-04T15:26:47;7.80;99.90
17954;DHT22;9102;53.548;9.926;2024-02-04T15:29:15;7.80;99.90
17954;DHT22;9102;53.548;9.926;2024-02-04T15:31:44;7.70;99.90
17954;DHT22;9102;53.548;9.926;2024-02-04T15:34:14;7.60;99.90
17954;DHT22;9102;53.548;9.926;2024-02-04T15:36:41;7.70;99.90
17954;DHT22;9102;53.548;9.926;2024-02-04T15:39:08;7.50;99.90
17954;DHT22;9102;53.548;9.926;2024-02-04T15:41:37;7.50;99.90
17954;DHT22;9102;53.548;9.926;2024-02-04T15:44:04;7.50;99.90
17954;DHT22;9102;53.548;9.926;2024-02-04T15:46:32;7.50;99.90
17954;DHT22;9102;53.548;9.926;2024-02-04T15:49:01;7.40;99.90
17954;DHT22;9102;53.548;9.926;2024-02-04T15:51:30;7.50;99.90
17954;DHT22;9102;53.548;9.926;2024-02-04T15:53:57;7.40;99.90
17954;DHT22;9102;53.548;9.926;2024-02-04T15:56:26;7.40;99.90
17954;DHT22;9102;53.548;9.926;2024-02-04T15:59:04;7.30;99.90
17954;DHT22;9102;53.548;9.926;2024-02-04T16:01:34;7.40;99.90
17954;DHT22;9102;53.548;9.926;2024-02-04T16:04:04;7.30;99.90
17954;DHT22;9102;53.548;9.926;2024-02-04T16:06:31;7.30;99.90